createdAt,value
2019-03-05T00:01:24.179Z,7.90
2019-03-05T00:03:53.597Z,7.90
2019-03-05T00:06:22.871Z,7.90
2019-03-05T00:08:52.399Z,8.00
2019-03-05T00:11:44.711Z,7.90
2019-03-05T00:14:14.165Z,7.90
2019-03-05T00:16:43.575Z,8.00
2019-03-05T00:19:13.105Z,7.90
2019-03-05T00:21:42.728Z,7.90
2019-03-05T00:25:01.140Z,8.00
2019-03-05T00:27:33.826Z,7.90
2019-03-05T00:30:24.447Z,7.90
2019-03-05T00:32:58.325Z,8.00
2019-03-05T00:36:09.172Z,7.90
2019-03-05T00:38:52.437Z,8.00
2019-03-05T00:41:49.108Z,8.00
2019-03-05T00:44:51.382Z,8.00
2019-03-05T00:47:41.357Z,8.00
2019-03-05T00:50:21.810Z,8.00
2019-03-05T00:53:00.454Z,7.90
2019-03-05T00:56:07.234Z,7.90
2019-03-05T00:59:05.040Z,7.90
2019-03-05T01:02:09.792Z,7.90
2019-03-05T01:05:18.010Z,7.90
2019-03-05T01:07:47.644Z,7.80
2019-03-05T01:10:17.460Z,7.80
2019-03-05T01:12:47.046Z,7.80
2019-03-05T01:15:16.792Z,7.80
2019-03-05T01:17:46.197Z,7.80
2019-03-05T01:20:15.612Z,7.80
2019-03-05T01:22:45.054Z,7.80
2019-03-05T01:25:26.958Z,7.80
2019-03-05T01:27:56.348Z,7.80
2019-03-05T01:30:49.096Z,7.80
2019-03-05T01:33:18.486Z,7.80
2019-03-05T01:35:54.537Z,7.80
2019-03-05T01:38:26.005Z,7.80
2019-03-05T01:40:58.947Z,7.80
2019-03-05T01:43:28.323Z,7.80
2019-03-05T01:45:57.664Z,7.80
2019-03-05T01:48:27.063Z,7.80
2019-03-05T01:50:56.413Z,7.80
2019-03-05T01:53:25.723Z,7.90
2019-03-05T01:55:55.195Z,7.90
2019-03-05T01:58:24.518Z,7.90
2019-03-05T02:00:53.917Z,7.90
2019-03-05T02:03:23.337Z,7.90
2019-03-05T02:05:54.544Z,7.90
2019-03-05T02:08:24.209Z,8.00
2019-03-05T02:10:53.509Z,8.00
2019-03-05T02:13:23.291Z,8.10
2019-03-05T02:15:52.709Z,8.10
2019-03-05T02:18:23.746Z,8.20
2019-03-05T02:20:53.439Z,8.20
2019-03-05T02:23:30.501Z,8.20
2019-03-05T02:26:35.845Z,8.30
2019-03-05T02:29:35.968Z,8.30
2019-03-05T02:32:52.294Z,8.30
2019-03-05T02:35:49.912Z,8.40
2019-03-05T02:38:38.556Z,8.40
2019-03-05T02:41:37.482Z,8.50
2019-03-05T02:44:59.793Z,8.50
2019-03-05T02:47:58.315Z,8.60
2019-03-05T02:51:04.258Z,8.50
2019-03-05T02:53:43.612Z,8.60
2019-03-05T02:56:37.058Z,8.60
2019-03-05T02:59:04.856Z,8.60
2019-03-05T03:01:51.709Z,8.60
2019-03-05T03:04:56.954Z,8.60
2019-03-05T03:07:26.464Z,8.60
2019-03-05T03:10:27.106Z,8.60
2019-03-05T03:12:56.539Z,8.70
2019-03-05T03:15:25.956Z,8.80
2019-03-05T03:17:55.332Z,8.90
2019-03-05T03:20:24.901Z,8.90
2019-03-05T03:22:54.290Z,9.00
2019-03-05T03:25:24.383Z,9.00
2019-03-05T03:27:54.068Z,9.10
2019-03-05T03:30:27.649Z,9.10
2019-03-05T03:32:57.068Z,9.10
2019-03-05T03:35:26.513Z,9.10
2019-03-05T03:37:55.803Z,9.10
2019-03-05T03:40:25.545Z,9.10
2019-03-05T03:42:55.286Z,9.10
2019-03-05T03:45:25.763Z,9.00
2019-03-05T03:47:55.153Z,9.00
2019-03-05T03:50:24.608Z,8.90
2019-03-05T03:52:53.927Z,8.90
2019-03-05T03:55:24.148Z,8.90
2019-03-05T03:57:55.538Z,8.80
2019-03-05T04:00:25.498Z,8.80
2019-03-05T04:02:55.608Z,8.80
2019-03-05T04:05:25.148Z,8.70
2019-03-05T04:07:54.496Z,8.70
2019-03-05T04:10:23.899Z,8.70
2019-03-05T04:12:53.281Z,8.70
2019-03-05T04:15:22.723Z,8.70
2019-03-05T04:17:52.110Z,8.70
2019-03-05T04:20:32.364Z,8.70
2019-03-05T04:23:01.507Z,8.60
2019-03-05T04:25:31.025Z,8.60
2019-03-05T04:28:00.401Z,8.70
2019-03-05T04:30:29.824Z,8.70
2019-03-05T04:33:01.620Z,8.70
2019-03-05T04:35:31.065Z,8.70
2019-03-05T04:38:00.423Z,8.80
2019-03-05T04:40:29.723Z,8.80
2019-03-05T04:42:59.092Z,8.80
2019-03-05T04:45:38.244Z,8.90
2019-03-05T04:48:07.620Z,8.80
2019-03-05T04:50:44.510Z,8.80
2019-03-05T04:53:13.880Z,8.80
2019-03-05T04:55:43.404Z,8.80
2019-03-05T04:58:12.638Z,8.70
2019-03-05T05:00:42.068Z,8.70
2019-03-05T05:03:11.364Z,8.70
2019-03-05T05:05:40.730Z,8.60
2019-03-05T05:08:10.046Z,8.60
2019-03-05T05:10:39.434Z,8.60
2019-03-05T05:13:09.270Z,8.60
2019-03-05T05:15:38.598Z,8.60
2019-03-05T05:18:08.000Z,8.60
2019-03-05T05:20:37.374Z,8.60
2019-03-05T05:23:06.750Z,8.50
2019-03-05T05:25:36.091Z,8.50
2019-03-05T05:28:05.783Z,8.50
2019-03-05T05:30:39.449Z,8.50
2019-03-05T05:33:09.528Z,8.50
2019-03-05T05:35:38.817Z,8.60
2019-03-05T05:38:08.144Z,8.60
2019-03-05T05:40:42.281Z,8.60
2019-03-05T05:43:14.376Z,8.60
2019-03-05T05:45:46.383Z,8.60
2019-03-05T05:48:16.063Z,8.60
2019-03-05T05:50:45.728Z,8.70
2019-03-05T05:53:15.231Z,8.70
2019-03-05T05:55:45.255Z,8.70
2019-03-05T05:58:14.835Z,8.80
2019-03-05T06:00:46.689Z,8.80
2019-03-05T06:03:16.309Z,8.80
2019-03-05T06:05:46.016Z,8.80
2019-03-05T06:08:15.600Z,8.80
2019-03-05T06:10:45.167Z,8.80
2019-03-05T06:13:14.871Z,8.80
2019-03-05T06:15:44.511Z,8.80
2019-03-05T06:18:14.167Z,8.80
2019-03-05T06:20:55.969Z,8.80
2019-03-05T06:23:25.589Z,8.80
2019-03-05T06:25:55.226Z,8.80
2019-03-05T06:28:24.977Z,8.80
2019-03-05T06:30:54.840Z,8.80
2019-03-05T06:33:24.636Z,8.80
2019-03-05T06:35:54.332Z,8.80
2019-03-05T06:38:23.975Z,8.80
2019-03-05T06:40:54.306Z,8.80
2019-03-05T06:43:24.204Z,8.90
2019-03-05T06:45:53.912Z,8.90
2019-03-05T06:48:23.565Z,8.90
2019-03-05T06:50:53.240Z,8.90
2019-03-05T06:53:23.026Z,8.90
2019-03-05T06:55:52.646Z,8.90
2019-03-05T06:58:22.122Z,9.00
2019-03-05T07:00:51.828Z,9.00
2019-03-05T07:03:21.545Z,9.10
2019-03-05T07:06:26.447Z,9.10
2019-03-05T07:09:18.795Z,9.20
2019-03-05T07:12:22.892Z,9.20
2019-03-05T07:15:16.052Z,9.30
2019-03-05T07:17:49.478Z,9.30
2019-03-05T07:20:42.273Z,9.30
2019-03-05T07:24:07.422Z,9.30
2019-03-05T07:26:36.948Z,9.20
2019-03-05T07:29:06.509Z,9.20
2019-03-05T07:31:36.136Z,9.10
2019-03-05T07:34:08.584Z,9.10
2019-03-05T07:36:38.400Z,9.00
2019-03-05T07:39:09.970Z,9.00
2019-03-05T07:41:39.484Z,9.00
2019-03-05T07:44:08.953Z,9.00
2019-03-05T07:46:38.603Z,9.00
2019-03-05T07:49:08.217Z,9.10
2019-03-05T07:51:37.849Z,9.10
2019-03-05T07:54:07.497Z,9.10
2019-03-05T07:56:37.241Z,9.20
2019-03-05T07:59:09.525Z,9.20
2019-03-05T08:01:39.204Z,9.30
2019-03-05T08:04:20.567Z,9.50
2019-03-05T08:06:50.914Z,9.60
2019-03-05T08:09:38.430Z,9.70
2019-03-05T08:12:46.969Z,9.90
2019-03-05T08:15:23.219Z,10.00
2019-03-05T08:17:52.734Z,10.10
2019-03-05T08:20:22.383Z,10.10
2019-03-05T08:22:52.269Z,10.10
2019-03-05T08:25:21.828Z,10.10
2019-03-05T08:27:51.511Z,10.10
2019-03-05T08:30:21.054Z,10.10
2019-03-05T08:32:51.097Z,10.00
2019-03-05T08:35:20.640Z,9.90
2019-03-05T08:37:50.251Z,9.80
2019-03-05T08:40:19.833Z,9.70
2019-03-05T08:42:49.446Z,9.60
2019-03-05T08:45:28.840Z,9.60
2019-03-05T08:47:50.449Z,9.60
2019-03-05T08:50:20.748Z,9.60
2019-03-05T08:52:50.232Z,9.60
2019-03-05T08:55:19.784Z,9.80
2019-03-05T08:57:49.488Z,9.90
2019-03-05T09:00:19.502Z,10.00
2019-03-05T09:02:49.459Z,10.20
2019-03-05T09:05:19.488Z,10.20
2019-03-05T09:07:49.502Z,10.30
2019-03-05T09:10:19.744Z,10.40
2019-03-05T09:12:49.408Z,10.40
2019-03-05T09:15:19.017Z,10.40
2019-03-05T09:17:48.786Z,10.40
2019-03-05T09:20:18.652Z,10.40
2019-03-05T09:22:48.322Z,10.40
2019-03-05T09:25:18.000Z,10.50
2019-03-05T09:27:47.717Z,10.60
2019-03-05T09:30:18.808Z,10.70
2019-03-05T09:32:48.490Z,10.80
2019-03-05T09:35:18.560Z,10.80
2019-03-05T09:37:48.332Z,10.90
2019-03-05T09:40:20.637Z,11.00
2019-03-05T09:42:50.244Z,11.10
2019-03-05T09:45:20.205Z,11.10
2019-03-05T09:47:49.943Z,11.10
2019-03-05T09:50:19.585Z,11.10
2019-03-05T09:52:54.965Z,11.00
2019-03-05T09:55:21.446Z,10.90
2019-03-05T09:58:06.984Z,10.90
2019-03-05T10:00:27.365Z,10.80
2019-03-05T10:02:58.121Z,10.80
2019-03-05T10:05:27.748Z,10.70
2019-03-05T10:07:57.271Z,10.70
2019-03-05T10:10:26.959Z,10.70
2019-03-05T10:12:58.891Z,10.70
2019-03-05T10:15:28.339Z,10.70
2019-03-05T10:17:58.218Z,10.70
2019-03-05T10:20:28.665Z,10.80
2019-03-05T10:22:58.262Z,10.80
2019-03-05T10:25:28.035Z,10.80
2019-03-05T10:27:58.521Z,10.80
2019-03-05T10:30:28.865Z,10.90
2019-03-05T10:32:59.665Z,11.00
2019-03-05T10:35:29.303Z,11.10
2019-03-05T10:37:59.458Z,11.20
2019-03-05T10:40:31.775Z,11.30
2019-03-05T10:43:08.292Z,11.40
2019-03-05T10:45:35.806Z,11.40
2019-03-05T10:48:05.481Z,11.50
2019-03-05T10:50:35.245Z,11.70
2019-03-05T10:53:06.055Z,11.90
2019-03-05T10:55:35.604Z,12.00
2019-03-05T10:58:05.754Z,12.10
2019-03-05T11:00:38.384Z,12.10
2019-03-05T11:03:07.940Z,12.10
2019-03-05T11:05:38.910Z,11.90
2019-03-05T11:08:12.336Z,11.70
2019-03-05T11:10:42.001Z,11.50
2019-03-05T11:13:12.944Z,11.20
2019-03-05T11:15:43.399Z,11.00
2019-03-05T11:18:13.288Z,11.00
2019-03-05T11:20:46.844Z,11.10
2019-03-05T11:23:16.709Z,11.20
2019-03-05T11:25:46.244Z,11.30
2019-03-05T11:28:15.872Z,11.30
2019-03-05T11:30:45.685Z,11.40
2019-03-05T11:33:15.928Z,11.40
2019-03-05T11:35:45.564Z,11.40
2019-03-05T11:38:15.124Z,11.30
2019-03-05T11:40:44.702Z,11.30
2019-03-05T11:43:20.396Z,11.20
2019-03-05T11:45:50.027Z,11.10
2019-03-05T11:48:19.833Z,11.10
2019-03-05T11:50:51.477Z,11.10
2019-03-05T11:53:21.649Z,11.00
2019-03-05T11:55:51.568Z,10.90
2019-03-05T11:58:21.895Z,10.90
2019-03-05T12:01:01.898Z,11.00
2019-03-05T12:03:31.652Z,11.00
2019-03-05T12:06:02.453Z,11.00
2019-03-05T12:08:32.441Z,11.00
2019-03-05T12:11:01.997Z,11.10
2019-03-05T12:13:31.866Z,11.20
2019-03-05T12:16:05.369Z,11.20
2019-03-05T12:18:35.083Z,11.10
2019-03-05T12:21:05.083Z,11.00
2019-03-05T12:23:38.821Z,10.80
2019-03-05T12:26:15.196Z,10.00
2019-03-05T12:28:44.627Z,9.20
2019-03-05T12:31:14.171Z,8.40
2019-03-05T12:33:57.755Z,7.90
2019-03-05T12:36:27.315Z,7.50
2019-03-05T12:38:56.786Z,7.30
2019-03-05T12:41:26.180Z,7.20
2019-03-05T12:43:55.928Z,7.10
2019-03-05T12:46:25.300Z,7.00
2019-03-05T12:48:54.750Z,6.90
2019-03-05T12:51:24.492Z,6.90
2019-03-05T12:53:54.437Z,6.90
2019-03-05T12:56:24.458Z,7.00
2019-03-05T12:58:54.018Z,7.10
2019-03-05T13:01:23.690Z,7.10
2019-03-05T13:03:53.144Z,7.20
2019-03-05T13:06:23.003Z,7.20
2019-03-05T13:08:52.595Z,7.20
2019-03-05T13:11:22.426Z,7.30
2019-03-05T13:14:05.449Z,7.30
2019-03-05T13:16:23.556Z,7.30
2019-03-05T13:18:53.331Z,7.30
2019-03-05T13:21:23.907Z,7.30
2019-03-05T13:23:53.505Z,7.30
2019-03-05T13:26:23.200Z,7.30
2019-03-05T13:28:52.893Z,7.50
2019-03-05T13:31:22.565Z,7.60
2019-03-05T13:33:52.223Z,7.70
2019-03-05T13:36:22.019Z,7.90
2019-03-05T13:38:51.717Z,8.00
2019-03-05T13:41:21.218Z,8.20
2019-03-05T13:43:52.053Z,8.30
2019-03-05T13:46:25.229Z,8.50
2019-03-05T13:49:40.943Z,8.60
2019-03-05T13:52:48.807Z,8.80
2019-03-05T13:55:53.345Z,9.00
2019-03-05T14:01:32.477Z,9.10
2019-03-05T14:04:06.274Z,9.20
2019-03-05T14:07:27.886Z,9.30
2019-03-05T14:09:57.714Z,9.30
2019-03-05T14:12:40.236Z,9.20
2019-03-05T14:15:10.709Z,9.20
2019-03-05T14:17:43.165Z,9.20
2019-03-05T14:20:18.887Z,9.10
2019-03-05T14:22:48.995Z,9.10
2019-03-05T14:25:30.743Z,9.00
2019-03-05T14:31:02.918Z,8.90
2019-03-05T14:33:36.343Z,8.80
2019-03-05T14:36:07.920Z,8.80
2019-03-05T14:39:22.033Z,8.80
2019-03-05T14:42:44.989Z,8.70
2019-03-05T14:45:32.159Z,8.70
2019-03-05T14:48:14.519Z,8.70
2019-03-05T14:50:48.337Z,8.90
2019-03-05T14:53:28.828Z,8.90
2019-03-05T14:56:07.629Z,9.10
2019-03-05T15:05:38.156Z,9.20
2019-03-05T15:08:10.952Z,9.10
2019-03-05T15:10:46.702Z,9.10
2019-03-05T15:13:36.957Z,9.20
2019-03-05T15:16:24.265Z,9.40
2019-03-05T15:18:58.479Z,9.60
2019-03-05T15:21:55.338Z,9.70
2019-03-05T15:24:25.639Z,9.80
2019-03-05T15:27:05.090Z,9.80
2019-03-05T15:29:35.156Z,9.90
2019-03-05T15:35:37.642Z,9.80
2019-03-05T15:38:07.493Z,9.70
2019-03-05T15:40:39.411Z,9.70
2019-03-05T15:43:12.057Z,9.70
2019-03-05T15:45:42.203Z,9.70
2019-03-05T15:48:11.857Z,9.70
2019-03-05T15:50:42.348Z,9.70
2019-03-05T15:53:13.058Z,9.60
2019-03-05T15:55:45.187Z,9.60
2019-03-05T15:58:14.698Z,9.50
2019-03-05T16:00:47.024Z,9.50
2019-03-05T16:03:19.221Z,9.40
2019-03-05T16:05:49.136Z,9.30
2019-03-05T16:08:20.992Z,9.30
2019-03-05T16:10:58.993Z,9.20
2019-03-05T16:13:28.993Z,9.20
2019-03-05T16:15:59.415Z,9.10
2019-03-05T16:18:29.892Z,9.10
2019-03-05T16:21:02.585Z,9.20
2019-03-05T16:23:31.796Z,9.20
2019-03-05T16:26:01.308Z,9.30
2019-03-05T16:28:33.602Z,9.30
2019-03-05T16:31:21.899Z,9.40
2019-03-05T16:34:03.915Z,9.40
2019-03-05T16:36:57.551Z,9.50
2019-03-05T16:39:34.594Z,9.40
2019-03-05T16:42:13.702Z,9.40
2019-03-05T16:45:11.968Z,9.40
2019-03-05T16:47:53.552Z,9.40
2019-03-05T16:50:40.411Z,9.40
2019-03-05T16:53:34.742Z,9.40
2019-03-05T16:56:24.285Z,9.40
2019-03-05T16:59:33.070Z,9.30
2019-03-05T17:02:33.588Z,9.20
2019-03-05T17:05:43.233Z,9.20
2019-03-05T17:08:31.746Z,9.10
2019-03-05T17:11:16.519Z,9.00
2019-03-05T17:13:46.148Z,9.00
2019-03-05T17:16:18.195Z,9.00
2019-03-05T17:18:59.421Z,9.00
2019-03-05T17:21:45.311Z,9.00
2019-03-05T17:24:49.705Z,9.00
2019-03-05T17:27:19.373Z,9.00
2019-03-05T17:29:48.805Z,8.90
2019-03-05T17:32:18.388Z,8.90
2019-03-05T17:34:47.879Z,8.80
2019-03-05T17:37:17.325Z,8.70
2019-03-05T17:39:46.693Z,8.60
2019-03-05T17:42:16.414Z,8.50
2019-03-05T17:44:45.804Z,8.40
2019-03-05T17:47:15.153Z,8.30
2019-03-05T17:49:44.559Z,8.20
2019-03-05T17:52:14.169Z,8.10
2019-03-05T17:54:43.591Z,8.10
2019-03-05T17:57:13.883Z,8.10
2019-03-05T17:59:43.258Z,8.00
2019-03-05T18:02:12.688Z,8.00
2019-03-05T18:04:42.050Z,7.90
2019-03-05T18:07:11.619Z,7.90
2019-03-05T18:09:41.152Z,7.80
2019-03-05T18:12:10.656Z,7.80
2019-03-05T18:14:40.210Z,7.80
2019-03-05T18:17:23.464Z,7.70
2019-03-05T18:19:44.497Z,7.70
2019-03-05T18:22:14.082Z,7.60
2019-03-05T18:24:43.430Z,7.60
2019-03-05T18:27:13.794Z,7.50
2019-03-05T18:29:43.630Z,7.50
2019-03-05T18:32:13.016Z,7.50
2019-03-05T18:34:42.536Z,7.40
2019-03-05T18:37:12.129Z,7.40
2019-03-05T18:39:41.780Z,7.40
2019-03-05T18:42:14.630Z,7.30
2019-03-05T18:44:44.090Z,7.30
2019-03-05T18:47:13.836Z,7.20
2019-03-05T18:49:43.412Z,7.20
2019-03-05T18:52:12.808Z,7.20
2019-03-05T18:54:44.754Z,7.20
2019-03-05T18:57:14.222Z,7.10
2019-03-05T18:59:43.974Z,7.10
2019-03-05T19:02:14.115Z,7.10
2019-03-05T19:04:43.586Z,7.10
2019-03-05T19:07:13.129Z,7.20
2019-03-05T19:09:42.519Z,7.20
2019-03-05T19:12:13.127Z,7.20
2019-03-05T19:14:42.639Z,7.20
2019-03-05T19:17:12.067Z,7.20
2019-03-05T19:19:41.607Z,7.20
2019-03-05T19:22:11.176Z,7.20
2019-03-05T19:24:40.656Z,7.20
2019-03-05T19:27:10.319Z,7.20
2019-03-05T19:29:40.047Z,7.20
2019-03-05T19:32:09.845Z,7.10
2019-03-05T19:34:40.409Z,7.10
2019-03-05T19:37:10.473Z,7.10
2019-03-05T19:39:39.944Z,7.10
2019-03-05T19:42:09.505Z,7.00
2019-03-05T19:44:38.926Z,7.10
2019-03-05T19:47:08.659Z,7.00
2019-03-05T19:49:38.152Z,7.00
2019-03-05T19:52:07.532Z,7.00
2019-03-05T19:54:44.784Z,7.00
2019-03-05T19:57:14.137Z,6.90
2019-03-05T19:59:43.788Z,6.90
2019-03-05T20:02:13.252Z,6.90
2019-03-05T20:04:42.660Z,6.90
2019-03-05T20:07:12.284Z,6.90
2019-03-05T20:09:41.770Z,6.80
2019-03-05T20:12:18.844Z,6.80
2019-03-05T20:14:48.292Z,6.80
2019-03-05T20:17:17.714Z,6.80
2019-03-05T20:19:47.263Z,6.80
2019-03-05T20:22:16.746Z,6.80
2019-03-05T20:24:46.030Z,6.80
2019-03-05T20:27:16.297Z,6.80
2019-03-05T20:29:45.907Z,6.80
2019-03-05T20:32:18.416Z,6.80
2019-03-05T20:34:47.791Z,6.80
2019-03-05T20:37:17.244Z,6.80
2019-03-05T20:39:46.616Z,6.80
2019-03-05T20:42:16.123Z,6.70
2019-03-05T20:44:45.385Z,6.70
2019-03-05T20:47:14.788Z,6.70
2019-03-05T20:49:44.395Z,6.70
2019-03-05T20:52:13.891Z,6.70
2019-03-05T20:54:43.367Z,6.70
2019-03-05T20:57:12.905Z,6.70
2019-03-05T20:59:42.515Z,6.70
2019-03-05T21:02:12.060Z,6.70
2019-03-05T21:04:41.443Z,6.60
2019-03-05T21:07:11.027Z,6.60
2019-03-05T21:09:40.845Z,6.60
2019-03-05T21:12:10.441Z,6.60
2019-03-05T21:14:40.181Z,6.60
2019-03-05T21:17:09.661Z,6.60
2019-03-05T21:19:39.261Z,6.60
2019-03-05T21:22:09.742Z,6.60
2019-03-05T21:24:39.768Z,6.60
2019-03-05T21:27:10.438Z,6.50
2019-03-05T21:29:41.336Z,6.50
2019-03-05T21:32:11.329Z,6.50
2019-03-05T21:34:42.745Z,6.50
2019-03-05T21:37:12.368Z,6.50
2019-03-05T21:39:43.513Z,6.50
2019-03-05T21:42:13.201Z,6.40
2019-03-05T21:44:42.847Z,6.40
2019-03-05T21:47:12.520Z,6.40
2019-03-05T21:49:41.946Z,6.40
2019-03-05T21:52:11.306Z,6.40
2019-03-05T21:54:40.703Z,6.40
2019-03-05T21:57:10.134Z,6.40
2019-03-05T21:59:39.577Z,6.40
2019-03-05T22:02:09.006Z,6.40
2019-03-05T22:04:39.066Z,6.40
2019-03-05T22:07:08.594Z,6.40
2019-03-05T22:09:38.008Z,6.50
2019-03-05T22:12:07.442Z,6.50
2019-03-05T22:14:36.724Z,6.50
2019-03-05T22:17:06.025Z,6.60
2019-03-05T22:19:35.669Z,6.50
2019-03-05T22:22:05.341Z,6.60
2019-03-05T22:24:34.769Z,6.60
2019-03-05T22:27:05.313Z,6.60
2019-03-05T22:29:34.863Z,6.60
2019-03-05T22:32:04.544Z,6.60
2019-03-05T22:34:33.924Z,6.60
2019-03-05T22:37:04.331Z,6.60
2019-03-05T22:39:34.787Z,6.70
2019-03-05T22:42:04.447Z,6.70
2019-03-05T22:44:33.852Z,6.70
2019-03-05T22:47:03.299Z,6.70
2019-03-05T22:49:32.682Z,6.70
2019-03-05T22:52:02.171Z,6.70
2019-03-05T22:54:31.599Z,6.70
2019-03-05T22:57:01.161Z,6.70
2019-03-05T22:59:30.545Z,6.70
2019-03-05T23:02:00.123Z,6.60
2019-03-05T23:04:33.034Z,6.60
2019-03-05T23:07:02.539Z,6.60
2019-03-05T23:09:33.020Z,6.60
2019-03-05T23:12:02.549Z,6.60
2019-03-05T23:14:32.251Z,6.60
2019-03-05T23:17:05.488Z,6.60
2019-03-05T23:19:34.860Z,6.60
2019-03-05T23:22:04.421Z,6.50
2019-03-05T23:24:33.931Z,6.50
2019-03-05T23:27:07.887Z,6.50
2019-03-05T23:29:43.577Z,6.50
2019-03-05T23:32:13.640Z,6.50
2019-03-05T23:34:43.044Z,6.50
2019-03-05T23:37:12.440Z,6.50
2019-03-05T23:39:41.942Z,6.50
2019-03-05T23:42:11.306Z,6.50
2019-03-05T23:44:40.713Z,6.50
2019-03-05T23:47:10.078Z,6.50
2019-03-05T23:49:39.469Z,6.50
2019-03-05T23:52:08.970Z,6.50
2019-03-05T23:54:38.451Z,6.50
2019-03-05T23:57:08.504Z,6.40
2019-03-05T23:59:37.910Z,6.40
